createdAt,value
2019-03-08T00:00:56.941Z,5.10
2019-03-08T00:03:25.974Z,5.10
2019-03-08T00:05:56.974Z,7.07
2019-03-08T00:08:25.814Z,8.00
2019-03-08T00:11:09.335Z,6.83
2019-03-08T00:13:47.834Z,4.57
2019-03-08T00:16:21.294Z,4.77
2019-03-08T00:19:07.474Z,5.57
2019-03-08T00:21:47.095Z,3.90
2019-03-08T00:27:10.186Z,5.83
2019-03-08T00:29:47.684Z,3.30
2019-03-08T00:32:16.843Z,4.60
2019-03-08T00:34:53.766Z,4.67
2019-03-08T00:37:23.464Z,4.17
2019-03-08T00:40:07.924Z,3.60
2019-03-08T00:42:42.024Z,4.23
2019-03-08T00:45:14.066Z,6.37
2019-03-08T00:48:03.585Z,8.33
2019-03-08T00:50:36.227Z,9.00
2019-03-08T00:53:05.847Z,9.47
2019-03-08T00:55:41.925Z,10.80
2019-03-08T00:58:16.984Z,5.87
2019-03-08T01:01:01.605Z,6.77
2019-03-08T01:03:31.325Z,6.33
2019-03-08T01:06:12.001Z,5.50
2019-03-08T01:08:58.339Z,6.67
2019-03-08T01:11:56.380Z,4.33
2019-03-08T01:14:30.140Z,4.27
2019-03-08T01:16:59.800Z,3.87
2019-03-08T01:19:29.579Z,4.23
2019-03-08T01:21:59.000Z,4.80
2019-03-08T01:24:29.399Z,4.93
2019-03-08T01:26:59.079Z,3.97
2019-03-08T01:29:31.201Z,6.40
2019-03-08T01:32:00.399Z,6.97
2019-03-08T01:34:30.101Z,5.87
2019-03-08T01:36:59.500Z,6.33
2019-03-08T01:39:28.879Z,5.77
2019-03-08T01:41:58.378Z,5.80
2019-03-08T01:44:28.120Z,5.77
2019-03-08T01:46:58.859Z,7.13
2019-03-08T01:49:27.919Z,5.70
2019-03-08T01:51:59.060Z,5.97
2019-03-08T01:54:29.759Z,5.60
2019-03-08T01:56:59.221Z,4.93
2019-03-08T01:59:28.480Z,5.43
2019-03-08T02:02:01.088Z,6.80
2019-03-08T02:04:30.147Z,7.47
2019-03-08T02:06:59.887Z,6.00
2019-03-08T02:09:29.279Z,5.37
2019-03-08T02:12:06.980Z,4.90
2019-03-08T02:14:36.459Z,5.37
2019-03-08T02:17:05.919Z,6.03
2019-03-08T02:19:35.281Z,6.23
2019-03-08T02:22:23.667Z,4.97
2019-03-08T02:24:54.719Z,4.13
2019-03-08T02:27:23.799Z,5.13
2019-03-08T02:29:55.542Z,4.50
2019-03-08T02:32:24.979Z,5.53
2019-03-08T02:34:56.140Z,6.50
2019-03-08T02:37:25.401Z,5.37
2019-03-08T02:39:54.841Z,6.03
2019-03-08T02:42:24.279Z,4.47
2019-03-08T02:44:54.038Z,4.37
2019-03-08T02:47:23.520Z,4.00
2019-03-08T02:49:53.561Z,4.10
2019-03-08T02:52:23.002Z,5.07
2019-03-08T02:54:52.459Z,3.93
2019-03-08T02:57:23.802Z,4.70
2019-03-08T02:59:53.559Z,3.10
2019-03-08T03:02:23.283Z,3.67
2019-03-08T03:04:52.441Z,4.97
2019-03-08T03:07:25.681Z,5.53
2019-03-08T03:09:55.121Z,4.47
2019-03-08T03:12:25.701Z,4.00
2019-03-08T03:14:56.921Z,5.97
2019-03-08T03:17:26.359Z,5.13
2019-03-08T03:19:55.799Z,4.17
2019-03-08T03:22:26.759Z,5.20
2019-03-08T03:24:56.399Z,4.47
2019-03-08T03:27:25.789Z,4.23
2019-03-08T03:29:55.659Z,6.70
2019-03-08T03:32:26.840Z,5.33
2019-03-08T03:34:56.039Z,4.43
2019-03-08T03:37:25.179Z,4.53
2019-03-08T03:39:54.438Z,5.00
2019-03-08T03:42:24.182Z,3.63
2019-03-08T03:44:53.699Z,4.43
2019-03-08T03:47:23.359Z,4.27
2019-03-08T03:49:55.479Z,3.80
2019-03-08T03:52:24.479Z,4.80
2019-03-08T03:54:54.062Z,3.90
2019-03-08T03:57:23.479Z,7.47
2019-03-08T03:59:53.539Z,5.27
2019-03-08T04:02:22.787Z,6.07
2019-03-08T04:04:53.744Z,4.00
2019-03-08T04:07:29.244Z,5.33
2019-03-08T04:10:01.385Z,3.80
2019-03-08T04:12:30.683Z,3.77
2019-03-08T04:15:00.124Z,4.90
2019-03-08T04:17:31.005Z,4.40
2019-03-08T04:20:03.205Z,3.50
2019-03-08T04:22:32.964Z,3.50
2019-03-08T04:25:02.364Z,4.80
2019-03-08T04:27:31.744Z,6.50
2019-03-08T04:30:03.805Z,5.37
2019-03-08T04:32:33.145Z,3.70
2019-03-08T04:35:02.526Z,4.10
2019-03-08T04:37:31.627Z,3.27
2019-03-08T04:40:01.405Z,5.83
2019-03-08T04:42:31.185Z,4.30
2019-03-08T04:45:16.406Z,3.00
2019-03-08T04:47:49.384Z,4.37
2019-03-08T04:50:20.123Z,3.17
2019-03-08T04:52:51.360Z,4.57
2019-03-08T04:55:26.541Z,5.73
2019-03-08T04:57:55.758Z,4.80
2019-03-08T05:00:24.919Z,4.10
2019-03-08T05:02:56.939Z,5.67
2019-03-08T05:05:26.320Z,4.43
2019-03-08T05:08:04.799Z,3.10
2019-03-08T05:10:33.959Z,3.73
2019-03-08T05:13:04.000Z,4.57
2019-03-08T05:15:33.459Z,5.57
2019-03-08T05:18:03.159Z,3.33
2019-03-08T05:20:35.998Z,5.20
2019-03-08T05:23:05.322Z,2.60
2019-03-08T05:25:34.619Z,3.47
2019-03-08T05:28:04.910Z,2.77
2019-03-08T05:30:34.519Z,3.23
2019-03-08T05:33:03.699Z,3.20
2019-03-08T05:35:33.407Z,3.27
2019-03-08T05:38:04.499Z,3.17
2019-03-08T05:40:34.282Z,2.90
2019-03-08T05:43:04.085Z,2.73
2019-03-08T05:45:34.099Z,2.93
2019-03-08T05:48:03.249Z,2.53
2019-03-08T05:50:37.053Z,3.20
2019-03-08T05:53:06.639Z,4.07
2019-03-08T05:55:37.679Z,3.83
2019-03-08T05:58:07.099Z,4.27
2019-03-08T06:00:40.243Z,4.43
2019-03-08T06:03:09.611Z,6.70
2019-03-08T06:05:42.246Z,3.27
2019-03-08T06:08:12.083Z,4.10
2019-03-08T06:10:41.185Z,3.37
2019-03-08T06:13:13.240Z,3.60
2019-03-08T06:15:43.020Z,2.93
2019-03-08T06:18:12.439Z,2.27
2019-03-08T06:20:41.843Z,2.13
2019-03-08T06:23:24.404Z,2.90
2019-03-08T06:25:53.561Z,3.13
2019-03-08T06:28:25.702Z,2.50
2019-03-08T06:30:55.320Z,4.43
2019-03-08T06:33:24.498Z,5.00
2019-03-08T06:35:53.720Z,2.13
2019-03-08T06:38:22.681Z,2.53
2019-03-08T06:40:53.261Z,2.40
2019-03-08T06:43:22.338Z,2.93
2019-03-08T06:45:51.620Z,3.93
2019-03-08T06:48:27.859Z,2.50
2019-03-08T06:50:56.919Z,2.00
2019-03-08T06:53:26.015Z,4.10
2019-03-08T06:55:54.980Z,1.97
2019-03-08T06:58:28.321Z,2.33
2019-03-08T07:00:58.828Z,2.40
2019-03-08T07:03:27.771Z,1.97
2019-03-08T07:05:57.326Z,2.07
2019-03-08T07:08:26.616Z,2.40
2019-03-08T07:10:57.350Z,1.50
2019-03-08T07:13:28.062Z,2.00
2019-03-08T07:15:56.944Z,2.83
2019-03-08T07:18:29.311Z,2.97
2019-03-08T07:21:02.704Z,2.80
2019-03-08T07:23:33.783Z,1.90
2019-03-08T07:26:10.403Z,1.90
2019-03-08T07:28:57.559Z,2.20
2019-03-08T07:31:46.439Z,3.70
2019-03-08T07:37:30.799Z,1.80
2019-03-08T07:40:09.719Z,2.23
2019-03-08T07:42:58.161Z,1.63
2019-03-08T07:45:32.147Z,1.70
2019-03-08T07:48:17.847Z,2.87
2019-03-08T07:51:04.902Z,4.43
2019-03-08T07:53:37.562Z,1.70
2019-03-08T07:56:15.800Z,3.07
2019-03-08T07:58:55.540Z,2.43
2019-03-08T08:01:35.446Z,2.37
2019-03-08T08:06:59.046Z,2.70
2019-03-08T08:09:30.147Z,2.80
2019-03-08T08:12:13.386Z,1.97
2019-03-08T08:14:56.946Z,1.67
2019-03-08T08:17:30.210Z,3.43
2019-03-08T08:20:17.566Z,1.77
2019-03-08T08:22:51.266Z,2.90
2019-03-08T08:25:36.950Z,1.87
2019-03-08T08:28:09.245Z,2.20
2019-03-08T08:30:58.661Z,1.50
2019-03-08T08:33:35.742Z,1.70
2019-03-08T08:36:25.241Z,1.40
2019-03-08T08:39:15.800Z,1.87
2019-03-08T08:41:49.399Z,2.40
2019-03-08T08:44:19.539Z,2.53
2019-03-08T08:47:04.459Z,1.53
2019-03-08T08:49:41.160Z,2.23
2019-03-08T08:52:24.160Z,2.03
2019-03-08T08:55:03.970Z,1.57
2019-03-08T08:57:51.000Z,2.37
2019-03-08T09:00:38.301Z,2.00
2019-03-08T09:03:09.979Z,2.83
2019-03-08T09:05:53.564Z,1.87
2019-03-08T09:08:32.559Z,1.90
2019-03-08T09:11:06.819Z,1.40
2019-03-08T09:13:46.599Z,1.60
2019-03-08T09:16:33.879Z,3.27
2019-03-08T09:19:10.680Z,2.50
2019-03-08T09:21:44.239Z,2.73
2019-03-08T09:24:32.721Z,2.80
2019-03-08T09:27:05.242Z,1.80
2019-03-08T09:29:48.359Z,3.23
2019-03-08T09:32:21.084Z,2.43
2019-03-08T09:34:53.500Z,1.80
2019-03-08T09:37:27.520Z,2.30
2019-03-08T09:40:03.802Z,1.90
2019-03-08T09:42:40.919Z,2.43
2019-03-08T09:45:32.160Z,3.10
2019-03-08T09:48:02.919Z,2.63
2019-03-08T09:50:41.098Z,2.27
2019-03-08T09:53:12.278Z,1.93
2019-03-08T09:55:53.880Z,3.67
2019-03-08T09:58:28.199Z,2.00
2019-03-08T10:01:16.596Z,4.30
2019-03-08T10:03:53.563Z,3.17
2019-03-08T10:06:24.213Z,2.23
2019-03-08T10:08:56.397Z,3.67
2019-03-08T10:11:27.242Z,2.20
2019-03-08T10:14:04.122Z,2.40
2019-03-08T10:16:37.902Z,1.40
2019-03-08T10:19:12.982Z,1.73
2019-03-08T10:22:02.524Z,4.20
2019-03-08T10:24:33.403Z,3.13
2019-03-08T10:27:22.122Z,1.93
2019-03-08T10:29:59.002Z,1.70
2019-03-08T10:32:37.370Z,1.97
2019-03-08T10:35:23.849Z,1.97
2019-03-08T10:37:54.400Z,1.63
2019-03-08T10:40:40.278Z,1.30
2019-03-08T10:43:13.678Z,3.40
2019-03-08T10:45:44.778Z,1.40
2019-03-08T10:48:17.142Z,3.33
2019-03-08T10:51:04.980Z,1.40
2019-03-08T10:53:38.679Z,1.40
2019-03-08T10:56:22.618Z,1.43
2019-03-08T10:59:13.198Z,2.33
2019-03-08T11:02:00.324Z,2.20
2019-03-08T11:04:31.023Z,2.00
2019-03-08T11:07:01.783Z,2.93
2019-03-08T11:09:46.099Z,3.07
2019-03-08T11:12:32.599Z,2.13
2019-03-08T11:15:03.202Z,2.03
2019-03-08T11:17:37.098Z,1.80
2019-03-08T11:20:27.181Z,4.17
2019-03-08T11:23:20.279Z,3.00
2019-03-08T11:26:15.040Z,1.97
2019-03-08T11:28:49.299Z,2.97
2019-03-08T11:31:19.999Z,2.30
2019-03-08T11:34:01.520Z,1.90
2019-03-08T11:36:39.639Z,2.70
2019-03-08T11:39:27.959Z,4.70
2019-03-08T11:42:16.086Z,4.27
2019-03-08T11:45:08.119Z,3.53
2019-03-08T11:47:39.082Z,2.33
2019-03-08T11:50:17.899Z,3.27
2019-03-08T11:52:54.361Z,3.67
2019-03-08T11:55:35.579Z,4.93
2019-03-08T11:58:16.299Z,4.60
2019-03-08T12:00:53.404Z,3.00
2019-03-08T12:03:27.219Z,3.43
2019-03-08T12:06:04.059Z,2.60
2019-03-08T12:08:50.840Z,2.67
2019-03-08T12:11:21.423Z,3.13
2019-03-08T12:14:04.119Z,3.77
2019-03-08T12:16:51.339Z,4.23
2019-03-08T12:19:42.801Z,3.87
2019-03-08T12:22:18.419Z,2.20
2019-03-08T12:25:04.279Z,4.27
2019-03-08T12:27:44.659Z,3.57
2019-03-08T12:30:18.439Z,4.47
2019-03-08T12:32:58.219Z,2.57
2019-03-08T12:35:46.529Z,2.80
2019-03-08T12:38:36.540Z,2.17
2019-03-08T12:41:16.101Z,2.30
2019-03-08T12:43:47.480Z,1.63
2019-03-08T12:46:33.556Z,2.97
2019-03-08T12:49:08.855Z,1.90
2019-03-08T12:51:56.323Z,2.67
2019-03-08T12:54:30.039Z,2.07
2019-03-08T12:57:06.902Z,1.50
2019-03-08T12:59:38.200Z,1.80
2019-03-08T13:02:14.360Z,3.13
2019-03-08T13:04:48.460Z,2.10
2019-03-08T13:07:31.764Z,2.00
2019-03-08T13:10:07.039Z,2.33
2019-03-08T13:12:36.360Z,2.17
2019-03-08T13:15:09.480Z,1.93
2019-03-08T13:17:39.797Z,1.70
2019-03-08T13:20:12.439Z,2.50
2019-03-08T13:22:43.479Z,2.70
2019-03-08T13:25:15.779Z,4.10
2019-03-08T13:27:46.599Z,2.70
2019-03-08T13:30:21.764Z,3.17
2019-03-08T13:32:51.727Z,4.43
2019-03-08T13:35:22.514Z,3.87
2019-03-08T13:37:52.311Z,2.90
2019-03-08T13:40:21.606Z,3.23
2019-03-08T13:42:52.447Z,3.30
2019-03-08T13:45:22.984Z,3.20
2019-03-08T13:47:52.286Z,2.80
2019-03-08T13:50:24.076Z,2.93
2019-03-08T13:52:53.364Z,3.57
2019-03-08T13:55:22.846Z,2.00
2019-03-08T13:57:52.204Z,2.53
2019-03-08T14:00:21.571Z,2.80
2019-03-08T14:02:50.903Z,2.27
2019-03-08T14:05:20.924Z,2.53
2019-03-08T14:07:50.107Z,3.13
2019-03-08T14:10:24.026Z,1.67
2019-03-08T14:12:54.964Z,1.73
2019-03-08T14:15:24.723Z,1.97
2019-03-08T14:17:54.848Z,1.97
2019-03-08T14:20:28.764Z,1.60
2019-03-08T14:22:58.340Z,2.27
2019-03-08T14:25:30.419Z,1.60
2019-03-08T14:28:01.419Z,2.07
2019-03-08T14:30:36.120Z,1.87
2019-03-08T14:33:03.539Z,2.50
2019-03-08T14:35:32.760Z,1.40
2019-03-08T14:38:05.360Z,1.30
2019-03-08T14:40:43.281Z,1.50
2019-03-08T14:43:16.934Z,1.23
2019-03-08T14:45:52.239Z,1.20
2019-03-08T14:48:21.779Z,1.63
2019-03-08T14:50:55.239Z,1.87
2019-03-08T14:53:28.310Z,1.53
2019-03-08T14:55:59.145Z,1.60
2019-03-08T14:58:26.820Z,1.50
2019-03-08T15:00:55.846Z,1.23
2019-03-08T15:03:24.945Z,1.63
2019-03-08T15:05:54.919Z,1.50
2019-03-08T15:08:26.262Z,1.53
2019-03-08T15:10:55.320Z,1.17
2019-03-08T15:13:25.834Z,1.27
2019-03-08T15:15:58.090Z,1.40
2019-03-08T15:18:25.951Z,1.40
2019-03-08T15:20:58.547Z,3.20
2019-03-08T15:23:27.622Z,1.10
2019-03-08T15:26:00.230Z,1.43
2019-03-08T15:28:29.892Z,1.50
2019-03-08T15:30:59.112Z,1.83
2019-03-08T15:33:28.199Z,1.27
2019-03-08T15:35:57.442Z,1.87
2019-03-08T15:38:26.422Z,1.67
2019-03-08T15:40:57.428Z,2.50
2019-03-08T15:43:26.350Z,1.40
2019-03-08T15:45:55.787Z,2.33
2019-03-08T15:48:45.225Z,3.03
2019-03-08T15:51:20.810Z,1.10
2019-03-08T15:53:50.024Z,1.60
2019-03-08T15:56:19.484Z,1.53
2019-03-08T15:58:48.485Z,2.47
2019-03-08T16:01:17.728Z,1.27
2019-03-08T16:03:47.519Z,1.80
2019-03-08T16:06:16.919Z,1.20
2019-03-08T16:08:46.303Z,1.00
2019-03-08T16:11:15.939Z,1.77
2019-03-08T16:13:48.569Z,1.47
2019-03-08T16:16:21.171Z,1.43
2019-03-08T16:18:50.847Z,1.63
2019-03-08T16:21:20.008Z,3.23
2019-03-08T16:23:51.599Z,1.87
2019-03-08T16:26:21.323Z,1.53
2019-03-08T16:28:51.549Z,1.73
2019-03-08T16:31:26.558Z,1.47
2019-03-08T16:33:57.102Z,1.30
2019-03-08T16:36:27.804Z,3.27
2019-03-08T16:38:58.702Z,1.70
2019-03-08T16:41:33.602Z,1.80
2019-03-08T16:44:04.522Z,2.13
2019-03-08T16:46:35.122Z,1.40
2019-03-08T16:49:19.958Z,2.50
2019-03-08T16:52:08.636Z,1.40
2019-03-08T16:54:39.847Z,1.47
2019-03-08T16:57:18.063Z,1.70
2019-03-08T17:00:05.408Z,3.63
2019-03-08T17:02:45.409Z,2.10
2019-03-08T17:05:16.379Z,1.50
2019-03-08T17:07:56.704Z,1.63
2019-03-08T17:10:32.299Z,1.50
2019-03-08T17:13:03.003Z,1.43
2019-03-08T17:15:40.120Z,3.03
2019-03-08T17:18:16.940Z,2.80
2019-03-08T17:20:53.601Z,5.10
2019-03-08T17:23:40.821Z,2.60
2019-03-08T17:26:29.459Z,2.93
2019-03-08T17:29:15.739Z,3.50
2019-03-08T17:32:04.584Z,2.30
2019-03-08T17:34:50.491Z,2.13
2019-03-08T17:37:27.161Z,3.30
2019-03-08T17:40:01.465Z,3.60
2019-03-08T17:42:45.566Z,2.67
2019-03-08T17:45:26.519Z,2.20
2019-03-08T17:48:09.265Z,2.87
2019-03-08T17:50:50.184Z,2.23
2019-03-08T17:53:33.282Z,2.53
2019-03-08T17:56:13.144Z,2.77
2019-03-08T17:59:01.444Z,2.23
2019-03-08T18:01:53.748Z,2.70
2019-03-08T18:04:27.403Z,3.20
2019-03-08T18:06:58.163Z,3.90
2019-03-08T18:09:43.739Z,3.53
2019-03-08T18:12:14.415Z,3.97
2019-03-08T18:14:45.419Z,4.20
2019-03-08T18:17:27.848Z,3.50
2019-03-08T18:19:58.471Z,3.83
2019-03-08T18:22:31.300Z,3.20
2019-03-08T18:25:01.725Z,3.30
2019-03-08T18:27:33.511Z,4.50
2019-03-08T18:30:11.028Z,3.20
2019-03-08T18:32:55.407Z,22.63
2019-03-08T18:35:35.430Z,6.70
2019-03-08T18:38:23.062Z,3.63
2019-03-08T18:41:17.388Z,2.80
2019-03-08T18:43:57.240Z,2.63
2019-03-08T18:46:27.827Z,3.73
2019-03-08T18:49:07.493Z,4.00
2019-03-08T18:51:58.665Z,2.87
2019-03-08T18:54:42.187Z,3.63
2019-03-08T18:57:25.839Z,3.13
2019-03-08T19:00:00.042Z,2.57
2019-03-08T19:02:34.979Z,2.30
2019-03-08T19:05:11.668Z,5.37
2019-03-08T19:07:48.807Z,2.90
2019-03-08T19:10:32.567Z,2.80
2019-03-08T19:13:07.929Z,3.20
2019-03-08T19:16:04.144Z,4.20
2019-03-08T19:18:38.173Z,2.93
2019-03-08T19:21:19.039Z,3.87
2019-03-08T19:23:53.260Z,3.07
2019-03-08T19:26:28.200Z,4.40
2019-03-08T19:29:06.681Z,2.30
2019-03-08T19:31:38.314Z,2.20
2019-03-08T19:34:12.222Z,4.20
2019-03-08T19:36:50.427Z,3.57
2019-03-08T19:39:38.816Z,2.23
2019-03-08T19:42:27.779Z,2.00
2019-03-08T19:45:01.525Z,2.30
2019-03-08T19:47:45.245Z,1.60
2019-03-08T19:50:18.463Z,1.40
2019-03-08T19:52:56.262Z,1.40
2019-03-08T19:55:33.170Z,1.50
2019-03-08T19:58:20.964Z,1.40
2019-03-08T20:00:51.766Z,1.57
2019-03-08T20:03:32.509Z,2.27
2019-03-08T20:06:22.624Z,2.17
2019-03-08T20:08:53.239Z,1.40
2019-03-08T20:11:28.244Z,1.40
2019-03-08T20:13:59.181Z,2.17
2019-03-08T20:16:31.992Z,1.33
2019-03-08T20:19:19.559Z,2.80
2019-03-08T20:21:57.318Z,1.77
2019-03-08T20:24:45.920Z,1.80
2019-03-08T20:27:16.619Z,1.67
2019-03-08T20:29:58.980Z,3.47
2019-03-08T20:32:35.739Z,1.03
2019-03-08T20:35:22.519Z,8.00
2019-03-08T20:38:02.187Z,5.93
2019-03-08T20:40:37.603Z,1.43
2019-03-08T20:43:08.279Z,1.23
2019-03-08T20:45:42.018Z,1.07
2019-03-08T20:48:13.309Z,1.47
2019-03-08T20:50:46.801Z,1.30
2019-03-08T20:53:17.343Z,1.07
2019-03-08T20:55:50.661Z,1.07
2019-03-08T20:58:20.260Z,1.03
2019-03-08T21:00:49.884Z,0.90
2019-03-08T21:03:21.464Z,1.07
2019-03-08T21:05:50.892Z,0.93
2019-03-08T21:08:23.345Z,1.07
2019-03-08T21:10:52.984Z,0.90
2019-03-08T21:13:22.329Z,1.00
2019-03-08T21:15:51.866Z,0.80
2019-03-08T21:18:22.003Z,1.33
2019-03-08T21:20:52.282Z,1.27
2019-03-08T21:23:22.790Z,0.90
2019-03-08T21:25:52.683Z,1.10
2019-03-08T21:28:24.683Z,0.90
2019-03-08T21:30:55.002Z,2.20
2019-03-08T21:33:27.112Z,1.80
2019-03-08T21:35:56.543Z,1.20
2019-03-08T21:38:25.727Z,2.63
2019-03-08T21:40:55.251Z,1.30
2019-03-08T21:43:26.222Z,3.57
2019-03-08T21:45:55.492Z,1.73
2019-03-08T21:48:24.908Z,2.47
2019-03-08T21:50:54.487Z,2.83
2019-03-08T21:53:23.790Z,1.73
2019-03-08T21:55:53.504Z,2.17
2019-03-08T21:58:22.613Z,2.20
2019-03-08T22:00:51.808Z,2.17
2019-03-08T22:03:32.265Z,1.10
2019-03-08T22:06:02.164Z,2.20
2019-03-08T22:08:31.684Z,1.13
2019-03-08T22:11:05.406Z,1.50
2019-03-08T22:13:35.004Z,2.70
2019-03-08T22:16:04.764Z,2.23
2019-03-08T22:18:34.404Z,2.77
2019-03-08T22:21:03.646Z,2.43
2019-03-08T22:23:32.724Z,2.30
2019-03-08T22:26:01.696Z,3.80
2019-03-08T22:28:31.450Z,2.00
2019-03-08T22:31:00.474Z,2.40
2019-03-08T22:33:29.798Z,1.83
2019-03-08T22:35:59.341Z,2.17
2019-03-08T22:38:28.419Z,3.37
2019-03-08T22:40:58.141Z,2.43
2019-03-08T22:43:27.200Z,2.70
2019-03-08T22:45:56.243Z,2.10
2019-03-08T22:48:25.324Z,2.20
2019-03-08T22:50:55.004Z,2.23
2019-03-08T22:53:24.100Z,3.07
2019-03-08T22:55:53.660Z,2.60
2019-03-08T22:58:22.679Z,3.23
2019-03-08T23:00:59.785Z,1.90
2019-03-08T23:03:30.266Z,2.33
2019-03-08T23:05:59.646Z,4.13
2019-03-08T23:08:29.728Z,2.37
2019-03-08T23:10:59.066Z,2.43
2019-03-08T23:13:39.510Z,2.67
2019-03-08T23:16:09.147Z,3.30
2019-03-08T23:18:38.360Z,3.23
2019-03-08T23:21:07.740Z,3.00
2019-03-08T23:23:36.922Z,2.90
2019-03-08T23:26:06.639Z,3.43
2019-03-08T23:28:37.320Z,3.27
2019-03-08T23:31:08.439Z,3.00
2019-03-08T23:33:37.559Z,2.67
2019-03-08T23:36:06.679Z,2.70
2019-03-08T23:38:39.701Z,2.70
2019-03-08T23:41:09.000Z,2.23
2019-03-08T23:43:38.939Z,2.47
2019-03-08T23:46:08.222Z,2.87
2019-03-08T23:48:37.819Z,4.10
2019-03-08T23:51:07.359Z,3.03
2019-03-08T23:53:36.579Z,4.33
2019-03-08T23:56:06.039Z,3.67
2019-03-08T23:58:35.159Z,3.63
